Monday, April 24, 2017, 10:45 PM EDT

KSEG, Selinsgrove Penn Valley Airport

Location: Selinsgrove, PA, United States Lat: 40.817
Local Time: 10:45 PM EDT ( 2:45 GMT) Lon: -76.867
Time Zone: US/Eastern Elev: 449 ft

Show me the last for .
Show Decoded

2017-04-24 21:53 METAR KSEG 250153Z AUTO 09005KT 10SM OVC060 13/07 A3008 RMK AO2 RAB02E47 SLP187
                 P0000 T01330072 =
2017-04-24 20:53 METAR KSEG 250053Z AUTO 14004KT 10SM OVC070 13/07 A3009 RMK AO2 RAE52 SLP189
                 P0001 T01280072 =
2017-04-24 19:53 METAR KSEG 242353Z AUTO 11005KT 10SM -RA BKN070 OVC110 14/07 A3008 RMK AO2
                 SLP186 P0000 60000 T01440067 10178 20139 53002 =
2017-04-24 18:53 METAR KSEG 242253Z AUTO 12004KT 10SM -RA OVC100 16/05 A3007 RMK AO2 RAB31 SLP183
                 P0000 T01560050 =
2017-04-24 17:53 METAR KSEG 242153Z AUTO 12007KT 10SM BKN100 17/03 A3007 RMK AO2 SLP185 T01670033
                 =
2017-04-24 16:53 METAR KSEG 242053Z AUTO 08009KT 10SM OVC100 17/02 A3007 RMK AO2 SLP185 T01720022
                 58012 =
2017-04-24 15:53 METAR KSEG 241953Z AUTO 00000KT 10SM OVC095 17/09 A3008 RMK AO2 SLP188 T01720089
                 =
2017-04-24 14:53 METAR KSEG 241853Z AUTO VRB04KT 10SM OVC100 17/07 A3010 RMK AO2 SLP194 T01720072
                 =
2017-04-24 13:53 METAR KSEG 241753Z AUTO 03004KT 10SM OVC100 16/08 A3011 RMK AO2 SLP195 T01610083
                 10161 20061 56011 =
2017-04-24 12:53 METAR KSEG 241653Z AUTO 02003KT 10SM OVC100 16/08 A3011 RMK AO2 SLP198 T01610078
                 =
2017-04-24 11:53 METAR KSEG 241553Z AUTO 00000KT 10SM FEW120 14/08 A3013 RMK AO2 SLP202 T01440078
                 =
2017-04-24 10:53 METAR KSEG 241453Z AUTO 00000KT 10SM FEW110 11/07 A3014 RMK AO2 SLP207 T01110067
                 50001 =
2017-04-24 09:53 METAR KSEG 241353Z AUTO 00000KT 10SM BKN110 09/07 A3015 RMK AO2 SLP211 T00890067
                 =
2017-04-24 08:53 METAR KSEG 241253Z AUTO 00000KT 10SM CLR 08/06 A3015 RMK AO2 SLP210 T00780061 =
2017-04-24 07:53 METAR KSEG 241153Z AUTO 00000KT 10SM CLR 06/05 A3014 RMK AO2 SLP206 T00610050
                 10061 20017 53013 =
2017-04-24 06:53 METAR KSEG 241053Z AUTO 33004KT 10SM CLR 04/04 A3012 RMK AO2 SLP201 T00390039 =
2017-04-24 05:53 METAR KSEG 240953Z AUTO 00000KT 10SM CLR 03/02 A3010 RMK AO2 SLP196 T00280022 =
2017-04-24 04:53 METAR KSEG 240853Z AUTO 00000KT 10SM CLR 02/02 A3010 RMK AO2 SLP193 T00220017
                 53001 =
2017-04-24 03:53 METAR KSEG 240753Z AUTO 00000KT 10SM CLR 03/03 A3009 RMK AO2 SLP190 T00280028 =
2017-04-24 02:53 METAR KSEG 240653Z AUTO 00000KT 10SM CLR 04/03 A3009 RMK AO2 SLP189 T00440033 =
2017-04-24 01:53 METAR KSEG 240553Z AUTO 00000KT 10SM CLR 05/04 A3009 RMK AO2 SLP192 T00500039
                 10150 20044 51002 =
2017-04-24 00:53 METAR KSEG 240453Z AUTO 00000KT 10SM CLR 06/05 A3009 RMK AO2 SLP192 T00610050
                 401891006 =
2017-04-23 23:53 METAR KSEG 240353Z AUTO 00000KT 10SM CLR 07/05 A3010 RMK AO2 SLP193 T00720050 =
2017-04-23 22:53 METAR KSEG 240253Z AUTO 00000KT 10SM CLR 08/04 A3009 RMK AO2 SLP189 T00830044
                 51008 =

Support USWX by starting your Amazon purchase here.